Aeroporto :
LOGIN :

Iscrizione | Disclaimer

   EN    FR    IT 

 










Sommario :    VFR   VFR Marginale   IFR   IFR Intensivo   IFR Molto Intensivo
Visibilità : 
Base nubi : 
>= 8 km
>= 3000ft
5 / 8 km
1000 / 3000 ft
1500m / 5 km
500 / 1000 ft
800 / 1500m
200 / 500 ft
< 800m
< 200 ft
Simboli :   Temporali  Nebbia  Neve Forte  Precipitazioni Forti  Vento > 20 kt
SIGMETs :   Varie  Temporali  Ghiacco  Turbolenza  Onda orograficha  Ceneri Vulcaniche







- Altitudine del aeroporto : 100 ft
- Codice IATA : DCI


LIED - Decimomannu Air Base

ULTIMO METAR :
  • 210055Z 34004KT 5000 BR FEW005 06/05 Q1025 RMK FEW VIS MIN 5000 WIND THR35 /////KT WIND THR17 /////KT WHT

METARs OBSOLETI :
  • 202355Z 32004KT 4000 BR FEW005 06/05 Q1025 RMK FEW VIS MIN 4000 WIND THR35 /////KT WIND THR17 /////KT GRN
  • 202255Z 35002KT 3000 BR SCT005 07/05 Q1025 RMK SCT VIS MIN 3000 WIND THR35 /////KT WIND THR17 /////KT BLU

TAF AMD TAF LIED
Valido dal 21 a 00 ore il 21 a 09 ore UTC


202300Z 2100/2109 VRB02KT 9999 SCT005
BECMG 2100/2102 3000 BR
TEMPO 2103/2107 0500 FG BKN005
Nessun NOTAM noto per questo aeroporto.
1 SIGMET conosciuto per la FIR Roma (LIRR) :
 
Ceneri vulcaniche
LIRR SIGMET 6 VALID 202351/210630 LIIB
LIRR ROMA FIR VA ERUPTION MT ETNA PSN N3744 E01500 VA CLD OBS AT 0000Z WI N3645 E01510 - N3649 E01445 - N3755 E01510 - N3745 E01525 - N3645 E01510 SFC/FL120 NC=



MetMap, La meteo Aeronautica in un colpo d'occhio ! - Copyright ORBIFLY Dicembre 2007 - Disclaimer

ORBIFLY MET'MAP TEAM :

Programmazione e sviluppo : Alexandra Zaïnal
Concezione e sviluppo : Baudouin d'Aumeries
Co-Programmazione e sviluppo : Marc-Olivier Méhu
Supporto tecnico e logistico : Manuel Goepfert
Aiuto per la traduzione : Arnaldo La Scala

Contatto : metmap@orbifly.com




FONTI E CREDITI :

   NOAA